createdAt,value
2022-10-22T00:00:57.600Z,20.7
2022-10-22T00:02:00.087Z,20.8
2022-10-22T00:03:02.738Z,20.8
2022-10-22T00:04:05.334Z,20.7
2022-10-22T00:05:07.831Z,20.8
2022-10-22T00:06:10.656Z,20.7
2022-10-22T00:07:13.149Z,20.8
2022-10-22T00:08:15.337Z,20.7
2022-10-22T00:09:17.721Z,20.9
2022-10-22T00:10:20.536Z,20.8
2022-10-22T00:11:23.001Z,20.9
2022-10-22T00:12:25.281Z,20.9
2022-10-22T00:13:27.179Z,21
2022-10-22T00:14:29.376Z,20.9
2022-10-22T00:15:31.844Z,20.8
2022-10-22T00:16:34.040Z,20.9
2022-10-22T00:17:36.232Z,20.9
2022-10-22T00:18:40.080Z,20.8
2022-10-22T00:19:42.564Z,21
2022-10-22T00:20:45.057Z,20.9
2022-10-22T00:21:47.546Z,20.9
2022-10-22T00:23:53.312Z,20.9
2022-10-22T00:24:55.671Z,20.9
2022-10-22T00:25:58.145Z,21
2022-10-22T00:27:00.616Z,21
2022-10-22T00:28:02.807Z,20.9
2022-10-22T00:29:05.012Z,20.9
2022-10-22T00:30:07.487Z,20.9
2022-10-22T00:31:10.140Z,20.9
2022-10-22T00:32:12.331Z,20.9
2022-10-22T00:33:13.977Z,21
2022-10-22T00:34:15.892Z,20.9
2022-10-22T00:35:18.400Z,20.9
2022-10-22T00:36:20.897Z,21
2022-10-22T00:37:23.189Z,20.9
2022-10-22T00:38:25.689Z,20.9
2022-10-22T00:39:27.884Z,21.1
2022-10-22T00:40:30.382Z,21
2022-10-22T00:41:32.856Z,21
2022-10-22T00:42:35.358Z,21
2022-10-22T00:43:37.281Z,21
2022-10-22T00:44:39.845Z,20.9
2022-10-22T00:45:42.045Z,21
2022-10-22T00:46:44.511Z,20.9
2022-10-22T00:47:47.142Z,20.9
2022-10-22T00:48:49.460Z,21
2022-10-22T00:49:52.100Z,21
2022-10-22T00:50:55.327Z,21
2022-10-22T00:51:57.818Z,21
2022-10-22T00:53:00.026Z,20.9
2022-10-22T00:54:02.518Z,21
2022-10-22T00:55:04.811Z,21
2022-10-22T00:56:07.286Z,21
2022-10-22T00:57:09.994Z,21.1
2022-10-22T00:58:12.188Z,21.1
2022-10-22T00:59:14.694Z,21
2022-10-22T01:00:17.175Z,21
2022-10-22T01:01:19.800Z,21
2022-10-22T01:02:22.678Z,21
2022-10-22T01:03:24.864Z,21
2022-10-22T01:04:27.060Z,21.1
2022-10-22T01:05:29.257Z,21
2022-10-22T01:06:31.447Z,21
2022-10-22T01:07:33.652Z,21.1
2022-10-22T01:08:35.694Z,21
2022-10-22T01:09:38.541Z,21
2022-10-22T01:10:40.464Z,21.1
2022-10-22T01:11:42.935Z,21.1
2022-10-22T01:12:45.129Z,21.1
2022-10-22T01:13:48.028Z,21.1
2022-10-22T01:14:50.203Z,21.2
2022-10-22T01:15:52.399Z,21.1
2022-10-22T01:16:54.305Z,21
2022-10-22T01:17:56.873Z,21.1
2022-10-22T01:18:59.062Z,21.1
2022-10-22T01:20:01.534Z,21
2022-10-22T01:21:03.461Z,21
2022-10-22T01:22:05.947Z,21.1
2022-10-22T01:23:08.166Z,21.1
2022-10-22T01:24:11.140Z,21.1
2022-10-22T01:25:13.655Z,21
2022-10-22T01:26:15.369Z,21.1
2022-10-22T01:27:18.113Z,21
2022-10-22T01:28:20.592Z,21
2022-10-22T01:29:22.783Z,21.1
2022-10-22T01:30:25.253Z,21
2022-10-22T01:31:27.163Z,21.1
2022-10-22T01:32:29.364Z,21.1
2022-10-22T01:33:31.540Z,21.1
2022-10-22T01:34:33.733Z,21
2022-10-22T01:35:35.933Z,21.1
2022-10-22T01:36:38.908Z,21.1
2022-10-22T01:37:42.136Z,21.1
2022-10-22T01:38:45.523Z,21
2022-10-22T01:39:48.599Z,21
2022-10-22T01:40:51.083Z,21.1
2022-10-22T01:41:53.283Z,21
2022-10-22T01:42:55.848Z,21.1
2022-10-22T01:43:58.050Z,21.1
2022-10-22T01:45:00.516Z,21
2022-10-22T01:46:02.995Z,21.1
2022-10-22T01:47:05.479Z,21
2022-10-22T01:48:07.674Z,21
2022-10-22T01:49:10.259Z,21
2022-10-22T01:50:12.766Z,21.1
2022-10-22T01:51:14.985Z,21.1
2022-10-22T01:52:17.458Z,21.1
2022-10-22T01:53:19.947Z,21
2022-10-22T01:54:22.439Z,21.1
2022-10-22T01:55:24.665Z,21.1
2022-10-22T01:56:27.187Z,21.2
2022-10-22T01:57:29.664Z,21.1
2022-10-22T01:58:32.147Z,21.1
2022-10-22T01:59:34.069Z,21.1
2022-10-22T02:00:36.686Z,21.1
2022-10-22T02:01:38.950Z,21.1
2022-10-22T02:02:41.585Z,21.1
2022-10-22T02:03:44.264Z,21.1
2022-10-22T02:04:46.477Z,21.1
2022-10-22T02:05:49.002Z,21.2
2022-10-22T02:06:51.204Z,21.2
2022-10-22T02:07:53.666Z,21.1
2022-10-22T02:08:56.451Z,21
2022-10-22T02:09:58.912Z,21
2022-10-22T02:11:01.414Z,21.1
2022-10-22T02:13:07.491Z,21
2022-10-22T02:14:10.140Z,21
2022-10-22T02:15:12.618Z,21.2
2022-10-22T02:16:15.114Z,21.3
2022-10-22T02:17:17.593Z,21.2
2022-10-22T02:18:20.072Z,21.1
2022-10-22T02:19:22.278Z,21.2
2022-10-22T02:20:24.472Z,21.1
2022-10-22T02:21:26.669Z,21.1
2022-10-22T02:22:29.138Z,21.1
2022-10-22T02:23:31.340Z,21.1
2022-10-22T02:24:33.823Z,21.1
2022-10-22T02:25:36.320Z,21.1
2022-10-22T02:26:39.016Z,21.1
2022-10-22T02:27:41.252Z,21.1
2022-10-22T02:28:43.723Z,21.1
2022-10-22T02:29:45.920Z,21.2
2022-10-22T02:30:47.827Z,21.1
2022-10-22T02:31:50.034Z,21.1
2022-10-22T02:32:52.067Z,21.2
2022-10-22T02:33:54.537Z,21.1
2022-10-22T02:34:57.416Z,21.2
2022-10-22T02:35:59.605Z,21.2
2022-10-22T02:37:02.080Z,21.2
2022-10-22T02:38:04.251Z,21.1
2022-10-22T02:39:06.798Z,21.3
2022-10-22T02:40:09.413Z,21.2
2022-10-22T02:41:11.908Z,21.2
2022-10-22T02:42:14.410Z,21.3
2022-10-22T02:43:16.928Z,21.1
2022-10-22T02:44:19.142Z,21.2
2022-10-22T02:45:21.619Z,21.2
2022-10-22T02:46:23.818Z,21.2
2022-10-22T02:47:26.297Z,21.1
2022-10-22T02:48:28.504Z,21.2
2022-10-22T02:49:30.986Z,21.1
2022-10-22T02:50:33.162Z,21
2022-10-22T02:51:35.629Z,21.2
2022-10-22T02:52:38.617Z,21.2
2022-10-22T02:53:42.751Z,21.2
2022-10-22T02:54:44.945Z,21.2
2022-10-22T02:55:47.450Z,21.2
2022-10-22T02:56:49.959Z,21.1
2022-10-22T02:57:52.463Z,21.2
2022-10-22T02:58:55.235Z,21.2
2022-10-22T02:59:57.168Z,21.1
2022-10-22T03:00:59.180Z,21.1
2022-10-22T03:02:01.858Z,21.2
2022-10-22T03:03:04.329Z,21.2
2022-10-22T03:04:06.810Z,21.2
2022-10-22T03:05:09.344Z,21.2
2022-10-22T03:06:11.931Z,21.2
2022-10-22T03:07:14.377Z,21.2
2022-10-22T03:08:16.578Z,21
2022-10-22T03:10:24.035Z,21.1
2022-10-22T03:11:26.532Z,21.1
2022-10-22T03:12:29.022Z,21.1
2022-10-22T03:13:31.245Z,21
2022-10-22T03:14:33.745Z,21
2022-10-22T03:15:35.972Z,21
2022-10-22T03:16:38.600Z,21
2022-10-22T03:17:41.213Z,21
2022-10-22T03:18:44.528Z,21
2022-10-22T03:19:47.425Z,21
2022-10-22T03:20:49.901Z,20.8
2022-10-22T03:21:52.108Z,21
2022-10-22T03:22:54.295Z,21
2022-10-22T03:23:56.870Z,20.9
2022-10-22T03:24:59.085Z,21
2022-10-22T03:26:01.282Z,20.9
2022-10-22T03:27:03.775Z,20.9
2022-10-22T03:28:06.274Z,20.9
2022-10-22T03:29:08.757Z,20.9
2022-10-22T03:30:11.312Z,20.9
2022-10-22T03:31:13.793Z,20.9
2022-10-22T03:32:16.265Z,20.8
2022-10-22T03:33:18.178Z,20.8
2022-10-22T03:34:20.661Z,20.9
2022-10-22T03:35:22.866Z,20.8
2022-10-22T03:36:24.801Z,20.9
2022-10-22T03:37:27.272Z,20.8
2022-10-22T03:38:29.186Z,20.8
2022-10-22T03:39:31.378Z,20.8
2022-10-22T03:40:33.850Z,20.8
2022-10-22T03:41:36.335Z,21
2022-10-22T03:42:38.823Z,20.9
2022-10-22T03:43:41.041Z,20.7
2022-10-22T03:44:43.546Z,20.8
2022-10-22T03:45:46.068Z,20.7
2022-10-22T03:46:49.075Z,20.8
2022-10-22T03:47:51.544Z,20.7
2022-10-22T03:48:53.452Z,20.8
2022-10-22T03:49:55.927Z,20.8
2022-10-22T03:50:58.395Z,20.8
2022-10-22T03:52:00.594Z,20.7
2022-10-22T03:53:03.068Z,20.8
2022-10-22T03:54:05.545Z,20.8
2022-10-22T03:55:08.022Z,20.9
2022-10-22T03:56:10.493Z,20.8
2022-10-22T03:57:12.674Z,20.6
2022-10-22T03:58:15.276Z,20.8
2022-10-22T03:59:17.777Z,20.8
2022-10-22T04:00:20.010Z,20.8
2022-10-22T04:01:22.671Z,20.8
2022-10-22T04:02:25.404Z,20.8
2022-10-22T04:03:27.909Z,20.9
2022-10-22T04:04:29.841Z,20.9
2022-10-22T04:05:31.763Z,20.7
2022-10-22T04:06:33.980Z,20.7
2022-10-22T04:07:36.451Z,20.6
2022-10-22T04:08:39.922Z,20.7
2022-10-22T04:09:42.405Z,20.6
2022-10-22T04:10:44.879Z,20.7
2022-10-22T04:11:47.347Z,20.7
2022-10-22T04:12:49.832Z,20.7
2022-10-22T04:13:52.318Z,20.7
2022-10-22T04:14:54.810Z,20.6
2022-10-22T04:15:57.029Z,20.7
2022-10-22T04:16:59.554Z,20.7
2022-10-22T04:18:02.026Z,20.7
2022-10-22T04:19:04.226Z,20.6
2022-10-22T04:20:06.434Z,20.7
2022-10-22T04:21:08.637Z,20.6
2022-10-22T04:22:11.126Z,20.6
2022-10-22T04:23:13.600Z,20.7
2022-10-22T04:24:16.090Z,20.6
2022-10-22T04:25:18.561Z,20.6
2022-10-22T04:26:20.733Z,20.7
2022-10-22T04:27:23.221Z,20.8
2022-10-22T04:28:25.695Z,20.7
2022-10-22T04:29:28.189Z,20.6
2022-10-22T04:30:30.382Z,20.4
2022-10-22T04:31:32.886Z,20.7
2022-10-22T04:32:35.411Z,20.7
2022-10-22T04:33:37.883Z,20.7
2022-10-22T04:34:39.811Z,20.7
2022-10-22T04:35:42.286Z,20.9
2022-10-22T04:36:44.477Z,20.6
2022-10-22T04:37:46.683Z,20.5
2022-10-22T04:38:49.268Z,20.7
2022-10-22T04:39:51.465Z,20.7
2022-10-22T04:40:53.950Z,20.7
2022-10-22T04:41:56.422Z,20.6
2022-10-22T04:42:58.329Z,20.7
2022-10-22T04:44:00.812Z,20.6
2022-10-22T04:45:03.623Z,20.7
2022-10-22T04:46:05.831Z,20.6
2022-10-22T04:47:07.777Z,20.7
2022-10-22T04:48:10.309Z,20.7
2022-10-22T04:49:12.230Z,20.7
2022-10-22T04:50:14.440Z,20.7
2022-10-22T04:51:16.362Z,20.7
2022-10-22T04:52:18.560Z,20.8
2022-10-22T04:53:20.466Z,20.6
2022-10-22T04:54:22.394Z,20.7
2022-10-22T04:55:26.879Z,20.7
2022-10-22T04:56:29.555Z,20.6
2022-10-22T04:57:32.035Z,20.6
2022-10-22T04:58:34.505Z,20.7
2022-10-22T04:59:36.987Z,20.6
2022-10-22T05:00:39.309Z,20.7
2022-10-22T05:01:43.546Z,20.6
2022-10-22T05:02:45.509Z,20.7
2022-10-22T05:03:47.746Z,20.7
2022-10-22T05:04:49.665Z,20.5
2022-10-22T05:05:51.874Z,20.6
2022-10-22T05:06:54.355Z,20.6
2022-10-22T05:07:56.562Z,20.6
2022-10-22T05:08:58.782Z,20.7
2022-10-22T05:10:00.970Z,20.5
2022-10-22T05:11:03.441Z,20.5
2022-10-22T05:12:05.343Z,20.6
2022-10-22T05:13:07.543Z,20.6
2022-10-22T05:14:09.734Z,20.6
2022-10-22T05:15:11.931Z,20.7
2022-10-22T05:16:14.145Z,20.6
2022-10-22T05:17:16.634Z,20.7
2022-10-22T05:19:24.262Z,20.7
2022-10-22T05:20:26.799Z,20.5
2022-10-22T05:21:29.259Z,20.6
2022-10-22T05:22:31.193Z,20.6
2022-10-22T05:23:33.391Z,20.7
2022-10-22T05:24:35.588Z,20.7
2022-10-22T05:25:38.177Z,20.6
2022-10-22T05:26:40.424Z,20.7
2022-10-22T05:27:42.861Z,20.6
2022-10-22T05:28:45.538Z,20.7
2022-10-22T05:29:47.991Z,20.6
2022-10-22T05:30:50.206Z,20.6
2022-10-22T05:31:52.719Z,20.7
2022-10-22T05:32:54.967Z,20.5
2022-10-22T05:33:57.180Z,20.7
2022-10-22T05:34:59.688Z,20.6
2022-10-22T05:36:02.188Z,20.6
2022-10-22T05:37:04.666Z,20.6
2022-10-22T05:38:06.861Z,20.7
2022-10-22T05:39:09.044Z,20.6
2022-10-22T05:41:15.959Z,20.7
2022-10-22T05:42:18.436Z,20.6
2022-10-22T05:43:20.905Z,20.6
2022-10-22T05:44:22.827Z,20.7
2022-10-22T05:45:24.742Z,20.5
2022-10-22T05:46:26.945Z,20.6
2022-10-22T05:47:29.151Z,20.6
2022-10-22T05:49:34.369Z,20.5
2022-10-22T05:50:36.587Z,20.5
2022-10-22T05:51:39.095Z,20.5
2022-10-22T05:52:42.399Z,20.5
2022-10-22T05:53:45.328Z,20.6
2022-10-22T05:54:47.883Z,20.6
2022-10-22T05:55:50.082Z,20.6
2022-10-22T05:56:52.292Z,20.5
2022-10-22T05:57:54.781Z,20.5
2022-10-22T05:58:57.121Z,20.7
2022-10-22T05:59:59.652Z,20.7
2022-10-22T06:01:01.853Z,20.6
2022-10-22T06:02:04.248Z,20.6
2022-10-22T06:03:06.758Z,20.6
2022-10-22T06:04:08.676Z,20.6
2022-10-22T06:05:11.144Z,20.7
2022-10-22T06:06:13.378Z,20.6
2022-10-22T06:07:15.607Z,20.8
2022-10-22T06:08:19.702Z,20.5
2022-10-22T06:09:21.909Z,20.6
2022-10-22T06:10:24.257Z,20.6
2022-10-22T06:12:31.712Z,20.7
2022-10-22T06:13:34.182Z,20.7
2022-10-22T06:14:36.371Z,20.6
2022-10-22T06:15:38.838Z,20.5
2022-10-22T06:16:40.761Z,20.6
2022-10-22T06:17:43.246Z,20.6
2022-10-22T06:18:45.728Z,20.5
2022-10-22T06:19:48.702Z,20.6
2022-10-22T06:20:50.888Z,20.6
2022-10-22T06:21:53.095Z,20.6
2022-10-22T06:22:55.591Z,20.6
2022-10-22T06:23:58.128Z,20.6
2022-10-22T06:25:00.629Z,20.5
2022-10-22T06:26:03.104Z,20.5
2022-10-22T06:27:05.570Z,20.6
2022-10-22T06:28:08.039Z,20.6
2022-10-22T06:29:10.236Z,20.6
2022-10-22T06:30:12.163Z,20.6
2022-10-22T06:31:14.625Z,20.5
2022-10-22T06:32:17.105Z,20.4
2022-10-22T06:33:19.603Z,20.6
2022-10-22T06:34:21.793Z,20.5
2022-10-22T06:35:24.013Z,20.7
2022-10-22T06:36:26.213Z,20.7
2022-10-22T06:37:28.533Z,20.6
2022-10-22T06:38:31.033Z,20.4
2022-10-22T06:39:33.199Z,20.5
2022-10-22T06:40:35.400Z,20.7
2022-10-22T06:41:38.305Z,20.5
2022-10-22T06:42:41.078Z,20.5
2022-10-22T06:43:44.713Z,20.5
2022-10-22T06:44:47.268Z,20.6
2022-10-22T06:45:49.616Z,20.6
2022-10-22T06:46:52.129Z,20.4
2022-10-22T06:47:54.612Z,20.6
2022-10-22T06:48:57.699Z,20.5
2022-10-22T06:49:59.920Z,20.5
2022-10-22T06:51:02.136Z,20.8
2022-10-22T06:52:04.617Z,20.5
2022-10-22T06:53:07.000Z,20.4
2022-10-22T06:54:09.554Z,20.5
2022-10-22T06:55:12.028Z,20.6
2022-10-22T06:56:14.211Z,20.5
2022-10-22T06:57:16.410Z,20.6
2022-10-22T06:58:18.614Z,20.6
2022-10-22T06:59:21.125Z,20.6
2022-10-22T07:00:23.687Z,20.5
2022-10-22T07:01:26.647Z,20.5
2022-10-22T07:02:29.495Z,20.6
2022-10-22T07:03:31.690Z,20.4
2022-10-22T07:04:34.164Z,20.6
2022-10-22T07:05:36.395Z,20.6
2022-10-22T07:06:38.903Z,20.5
2022-10-22T07:07:41.108Z,20.4
2022-10-22T07:08:43.196Z,20.5
2022-10-22T07:09:45.999Z,20.4
2022-10-22T07:10:48.915Z,20.5
2022-10-22T07:11:50.847Z,20.6
2022-10-22T07:12:53.323Z,20.6
2022-10-22T07:13:56.063Z,20.5
2022-10-22T07:14:58.609Z,20.5
2022-10-22T07:16:00.802Z,20.4
2022-10-22T07:17:03.011Z,20.5
2022-10-22T07:18:05.202Z,20.6
2022-10-22T07:19:07.404Z,20.5
2022-10-22T07:20:09.319Z,20.4
2022-10-22T07:21:11.537Z,20.5
2022-10-22T07:22:14.049Z,20.5
2022-10-22T07:23:16.522Z,20.5
2022-10-22T07:24:18.749Z,20.6
2022-10-22T07:25:21.267Z,20.6
2022-10-22T07:26:23.751Z,20.5
2022-10-22T07:27:26.223Z,20.4
2022-10-22T07:28:28.438Z,20.5
2022-10-22T07:29:30.639Z,20.5
2022-10-22T07:30:33.106Z,20.5
2022-10-22T07:31:35.584Z,20.5
2022-10-22T07:32:37.212Z,20.6
2022-10-22T07:33:39.720Z,20.7
2022-10-22T07:35:46.900Z,20.5
2022-10-22T07:36:49.569Z,20.5
2022-10-22T07:37:51.520Z,20.5
2022-10-22T07:38:54.006Z,20.4
2022-10-22T07:39:55.646Z,20.5
2022-10-22T07:41:01.612Z,20.6
2022-10-22T07:42:03.834Z,20.6
2022-10-22T07:43:06.313Z,20.6
2022-10-22T07:44:08.810Z,20.6
2022-10-22T07:45:11.307Z,20.4
2022-10-22T07:46:13.798Z,20.6
2022-10-22T07:47:16.267Z,20.5
2022-10-22T07:48:18.472Z,20.5
2022-10-22T07:49:20.645Z,20.6
2022-10-22T07:50:23.031Z,20.5
2022-10-22T07:51:25.234Z,20.5
2022-10-22T07:52:27.455Z,20.5
2022-10-22T07:53:29.959Z,20.5
2022-10-22T07:54:32.455Z,20.5
2022-10-22T07:55:34.943Z,20.5
2022-10-22T07:56:37.439Z,20.5
2022-10-22T07:57:39.662Z,20.5
2022-10-22T07:58:42.142Z,20.4
2022-10-22T07:59:44.335Z,20.5
2022-10-22T08:00:46.816Z,20.4
2022-10-22T08:01:49.563Z,20.5
2022-10-22T08:02:51.782Z,20.5
2022-10-22T08:03:53.451Z,20.5
2022-10-22T08:04:56.217Z,20.6
2022-10-22T08:05:58.120Z,20.4
2022-10-22T08:07:00.597Z,20.5
2022-10-22T08:08:03.121Z,20.4
2022-10-22T08:09:05.318Z,20.4
2022-10-22T08:10:08.027Z,20.4
2022-10-22T08:11:10.354Z,20.4
2022-10-22T08:12:12.903Z,20.5
2022-10-22T08:13:15.138Z,20.5
2022-10-22T08:14:17.600Z,20.4
2022-10-22T08:15:19.507Z,20.4
2022-10-22T08:16:21.971Z,20.4
2022-10-22T08:17:24.189Z,20.5
2022-10-22T08:18:26.381Z,20.5
2022-10-22T08:19:28.875Z,20.5
2022-10-22T08:20:31.084Z,20.6
2022-10-22T08:21:33.291Z,20.4
2022-10-22T08:22:35.472Z,20.7
2022-10-22T08:23:37.673Z,20.5
2022-10-22T08:24:40.188Z,20.5
2022-10-22T08:25:41.826Z,20.5
2022-10-22T08:26:44.021Z,20.5
2022-10-22T08:27:46.262Z,20.6
2022-10-22T08:28:48.533Z,20.5
2022-10-22T08:29:51.016Z,20.3
2022-10-22T08:30:53.245Z,20.6
2022-10-22T08:31:55.814Z,20.6
2022-10-22T08:32:58.290Z,20.5
2022-10-22T08:34:00.470Z,20.6
2022-10-22T08:35:02.968Z,20.4
2022-10-22T08:36:05.179Z,20.4
2022-10-22T08:37:07.409Z,20.7
2022-10-22T08:38:09.737Z,20.4
2022-10-22T08:39:12.234Z,20.5
2022-10-22T08:40:14.733Z,20.5
2022-10-22T08:41:16.935Z,20.5
2022-10-22T08:42:19.433Z,20.4
2022-10-22T08:43:21.930Z,20.5
2022-10-22T08:44:39.074Z,20.4
2022-10-22T08:45:40.974Z,20.4
2022-10-22T08:46:43.445Z,20.4
2022-10-22T08:47:45.368Z,20.5
2022-10-22T08:48:47.568Z,20.4
2022-10-22T08:49:49.783Z,20.5
2022-10-22T08:50:52.003Z,20.4
2022-10-22T08:51:54.492Z,20.4
2022-10-22T08:52:56.969Z,20.4
2022-10-22T08:53:59.164Z,20.3
2022-10-22T08:55:01.655Z,20.4
2022-10-22T08:56:03.891Z,20.4
2022-10-22T08:57:06.377Z,20.5
2022-10-22T08:58:08.865Z,20.3
2022-10-22T08:59:11.090Z,20.5
2022-10-22T09:00:13.562Z,20.5
2022-10-22T09:01:15.771Z,20.4
2022-10-22T09:02:18.234Z,20.4
2022-10-22T09:03:20.417Z,20.5
2022-10-22T09:04:22.309Z,20.4
2022-10-22T09:05:24.789Z,20.4
2022-10-22T09:06:26.725Z,20.5
2022-10-22T09:07:28.906Z,20.4
2022-10-22T09:08:31.613Z,20.5
2022-10-22T09:09:33.748Z,20.4
2022-10-22T09:10:36.236Z,20.3
2022-10-22T09:11:38.838Z,20.4
2022-10-22T09:12:41.302Z,20.4
2022-10-22T09:13:43.239Z,20.5
2022-10-22T09:14:45.717Z,20.4
2022-10-22T09:15:48.455Z,20.3
2022-10-22T09:16:50.654Z,20.4
2022-10-22T09:17:52.594Z,20.5
2022-10-22T09:18:55.097Z,20.4
2022-10-22T09:19:57.310Z,20.4
2022-10-22T09:20:58.958Z,20.4
2022-10-22T09:22:01.433Z,20.5
2022-10-22T09:23:03.935Z,20.4
2022-10-22T09:24:06.409Z,20.4
2022-10-22T09:25:08.609Z,20.4
2022-10-22T09:26:11.186Z,20.5
2022-10-22T09:27:13.392Z,20.5
2022-10-22T09:28:15.875Z,20.6
2022-10-22T09:29:18.537Z,20.4
2022-10-22T09:30:22.163Z,20.4
2022-10-22T09:31:24.659Z,20.4
2022-10-22T09:32:26.891Z,20.4
2022-10-22T09:33:29.090Z,20.5
2022-10-22T09:34:31.295Z,20.5
2022-10-22T09:35:33.219Z,20.5
2022-10-22T09:36:35.704Z,20.3
2022-10-22T09:37:37.371Z,20.5
2022-10-22T09:38:39.865Z,20.4
2022-10-22T09:39:41.507Z,20.3
2022-10-22T09:40:43.978Z,20.4
2022-10-22T09:41:46.496Z,20.4
2022-10-22T09:42:49.167Z,20.5
2022-10-22T09:43:51.401Z,20.4
2022-10-22T09:44:53.638Z,20.4
2022-10-22T09:45:55.852Z,20.5
2022-10-22T09:46:58.353Z,20.5
2022-10-22T09:48:03.059Z,20.4
2022-10-22T09:49:05.562Z,20.3
2022-10-22T09:50:08.055Z,20.4
2022-10-22T09:51:10.522Z,20.4
2022-10-22T09:52:13.013Z,20.4
2022-10-22T09:53:15.487Z,20.4
2022-10-22T09:54:17.975Z,20.4
2022-10-22T09:55:20.191Z,20.4
2022-10-22T09:56:22.397Z,20.5
2022-10-22T09:57:24.913Z,20.4
2022-10-22T09:58:27.415Z,20.4
2022-10-22T09:59:29.895Z,20.3
2022-10-22T10:00:31.865Z,20.5
2022-10-22T10:01:34.356Z,20.6
2022-10-22T10:03:41.562Z,20.4
2022-10-22T10:04:44.039Z,20.5
2022-10-22T10:05:46.510Z,20.4
2022-10-22T10:06:48.929Z,20.3
2022-10-22T10:07:51.396Z,20.5
2022-10-22T10:08:54.075Z,20.4
2022-10-22T10:09:56.853Z,20.4
2022-10-22T10:10:59.356Z,20.4
2022-10-22T10:12:01.836Z,20.4
2022-10-22T10:13:04.357Z,20.5
2022-10-22T10:14:06.843Z,20.4
2022-10-22T10:15:09.321Z,20.5
2022-10-22T10:16:11.826Z,20.5
2022-10-22T10:17:14.343Z,20.5
2022-10-22T10:18:16.558Z,20.5
2022-10-22T10:19:18.773Z,20.4
2022-10-22T10:20:21.260Z,20.4
2022-10-22T10:21:23.745Z,20.3
2022-10-22T10:22:26.214Z,20.4
2022-10-22T10:23:27.850Z,20.4
2022-10-22T10:24:30.323Z,20.3
2022-10-22T10:25:32.532Z,20.5
2022-10-22T10:26:35.019Z,20.3
2022-10-22T10:27:36.952Z,20.4
2022-10-22T10:28:39.884Z,20.3
2022-10-22T10:29:42.386Z,20.4
2022-10-22T10:30:44.624Z,20.4
2022-10-22T10:31:46.280Z,20.4
2022-10-22T10:32:49.194Z,20.4
2022-10-22T10:33:51.144Z,20.4
2022-10-22T10:34:53.068Z,20.5
2022-10-22T10:35:55.812Z,20.4
2022-10-22T10:36:57.985Z,20.4
2022-10-22T10:38:00.481Z,20.5
2022-10-22T10:39:02.967Z,20.5
2022-10-22T10:40:05.666Z,20.4
2022-10-22T10:41:07.650Z,20.5
2022-10-22T10:42:10.148Z,20.4
2022-10-22T10:43:12.634Z,20.5
2022-10-22T10:44:15.145Z,20.5
2022-10-22T10:45:17.072Z,20.3
2022-10-22T10:46:19.311Z,20.6
2022-10-22T10:47:21.583Z,20.5
2022-10-22T10:48:23.831Z,20.4
2022-10-22T10:49:26.340Z,20.4
2022-10-22T10:50:28.813Z,20.4
2022-10-22T10:51:31.025Z,20.4
2022-10-22T10:52:33.496Z,20.4
2022-10-22T10:53:35.392Z,20.4
2022-10-22T10:55:41.129Z,20.4
2022-10-22T10:56:43.604Z,20.3
2022-10-22T10:57:46.079Z,20.5
2022-10-22T10:58:47.704Z,20.4
2022-10-22T10:59:49.632Z,20.5
2022-10-22T11:00:52.123Z,20.4
2022-10-22T11:01:54.703Z,20.5
2022-10-22T11:02:57.433Z,20.5
2022-10-22T11:03:59.980Z,20.5
2022-10-22T11:05:02.510Z,20.4
2022-10-22T11:06:05.016Z,20.4
2022-10-22T11:08:12.476Z,20.5
2022-10-22T11:09:15.145Z,20.6
2022-10-22T11:10:17.642Z,20.6
2022-10-22T11:11:20.326Z,20.4
2022-10-22T11:12:22.810Z,20.5
2022-10-22T11:13:25.302Z,20.5
2022-10-22T11:15:32.782Z,20.6
2022-10-22T11:16:35.363Z,20.4
2022-10-22T11:17:37.536Z,20.4
2022-10-22T11:18:39.235Z,20.4
2022-10-22T11:20:46.735Z,20.5
2022-10-22T11:21:48.679Z,20.4
2022-10-22T11:23:55.863Z,20.4
2022-10-22T11:24:58.066Z,20.3
2022-10-22T11:26:00.019Z,20.4
2022-10-22T11:27:01.966Z,20.5
2022-10-22T11:29:09.441Z,20.4
2022-10-22T11:30:11.930Z,20.3
2022-10-22T11:31:13.840Z,20.5
2022-10-22T11:32:16.358Z,20.4
2022-10-22T11:33:18.579Z,20.6
2022-10-22T11:35:26.318Z,20.4
2022-10-22T11:36:28.939Z,20.5
2022-10-22T11:37:31.546Z,20.5
2022-10-22T11:38:35.638Z,20.4
2022-10-22T11:39:38.101Z,20.3
2022-10-22T11:40:40.577Z,20.4
2022-10-22T11:41:43.051Z,20.4
2022-10-22T11:42:45.528Z,20.4
2022-10-22T11:43:47.702Z,20.4
2022-10-22T11:44:49.984Z,20.4
2022-10-22T11:45:53.278Z,20.3
2022-10-22T11:46:55.507Z,20.3
2022-10-22T11:47:57.468Z,20.5
2022-10-22T11:48:59.938Z,20.4
2022-10-22T11:50:01.580Z,20.4
2022-10-22T11:51:04.096Z,20.5
2022-10-22T11:52:06.579Z,20.5
2022-10-22T11:53:08.969Z,20.5
2022-10-22T11:54:12.513Z,20.5
2022-10-22T11:55:14.452Z,20.4
2022-10-22T11:56:16.075Z,20.5
2022-10-22T11:57:18.567Z,20.5
2022-10-22T11:58:20.789Z,20.5
2022-10-22T11:59:22.981Z,20.3
2022-10-22T12:00:25.558Z,20.4
2022-10-22T12:01:28.154Z,20.5
2022-10-22T12:02:30.908Z,20.4
2022-10-22T12:03:33.425Z,20.3
2022-10-22T12:04:35.485Z,20.5
2022-10-22T12:05:38.132Z,20.7
2022-10-22T12:06:39.814Z,20.5
2022-10-22T12:07:42.304Z,20.5
2022-10-22T12:08:44.656Z,20.4
2022-10-22T12:09:47.262Z,20.5
2022-10-22T12:10:49.668Z,20.4
2022-10-22T12:11:51.914Z,20.4
2022-10-22T12:12:54.117Z,20.4
2022-10-22T12:13:56.326Z,20.4
2022-10-22T12:14:58.265Z,20.4
2022-10-22T12:16:00.894Z,20.4
2022-10-22T12:17:03.416Z,20.5
2022-10-22T12:18:05.740Z,20.3
2022-10-22T12:19:07.927Z,20.5
2022-10-22T12:20:10.120Z,20.4
2022-10-22T12:21:12.313Z,20.2
2022-10-22T12:22:14.815Z,20.4
2022-10-22T12:23:16.749Z,20.4
2022-10-22T12:24:18.416Z,20.3
2022-10-22T12:25:20.904Z,20.4
2022-10-22T12:26:23.458Z,20.3
2022-10-22T12:27:25.522Z,20.5
2022-10-22T12:28:27.742Z,20.5
2022-10-22T12:29:29.962Z,20.5
2022-10-22T12:30:31.879Z,20.4
2022-10-22T12:31:34.070Z,20.3
2022-10-22T12:32:36.550Z,20.4
2022-10-22T12:33:38.747Z,20.5
2022-10-22T12:34:41.058Z,20.3
2022-10-22T12:35:43.578Z,20.4
2022-10-22T12:36:46.039Z,20.4
2022-10-22T12:37:48.278Z,20.5
2022-10-22T12:38:50.753Z,20.4
2022-10-22T12:39:53.244Z,20.4
2022-10-22T12:40:55.455Z,20.4
2022-10-22T12:41:57.501Z,20.4
2022-10-22T12:42:59.981Z,20.6
2022-10-22T12:44:02.845Z,20.5
2022-10-22T12:45:05.311Z,20.4
2022-10-22T12:46:07.241Z,20.4
2022-10-22T12:47:09.710Z,20.6
2022-10-22T12:48:11.903Z,20.5
2022-10-22T12:49:14.105Z,20.4
2022-10-22T12:50:16.620Z,20.4
2022-10-22T12:51:19.162Z,20.4
2022-10-22T12:52:21.975Z,20.4
2022-10-22T12:53:24.488Z,20.4
2022-10-22T12:54:26.979Z,20.4
2022-10-22T12:55:28.639Z,20.3
2022-10-22T12:56:31.117Z,20.3
2022-10-22T12:57:33.302Z,20.4
2022-10-22T12:58:35.506Z,20.5
2022-10-22T12:59:38.024Z,20.3
2022-10-22T13:00:40.899Z,20.5
2022-10-22T13:01:43.713Z,20.4
2022-10-22T13:02:46.187Z,20.3
2022-10-22T13:03:48.669Z,20.5
2022-10-22T13:04:51.152Z,20.4
2022-10-22T13:05:53.668Z,20.4
2022-10-22T13:06:55.870Z,20.5
2022-10-22T13:07:57.784Z,20.5
2022-10-22T13:09:00.229Z,20.4
2022-10-22T13:10:03.061Z,20.4
2022-10-22T13:11:05.628Z,20.6
2022-10-22T13:12:07.566Z,20.5
2022-10-22T13:13:09.768Z,20.4
2022-10-22T13:14:12.240Z,20.4
2022-10-22T13:15:14.443Z,20.5
2022-10-22T13:16:16.911Z,20.6
2022-10-22T13:17:19.118Z,20.5
2022-10-22T13:18:21.311Z,20.5
2022-10-22T13:19:23.803Z,20.5
2022-10-22T13:20:25.731Z,20.4
2022-10-22T13:21:28.227Z,20.4
2022-10-22T13:22:30.435Z,20.5
2022-10-22T13:23:32.956Z,20.4
2022-10-22T13:24:35.183Z,20.4
2022-10-22T13:25:37.672Z,20.5
2022-10-22T13:26:40.169Z,20.4
2022-10-22T13:27:42.928Z,20.4
2022-10-22T13:28:45.240Z,20.4
2022-10-22T13:29:47.795Z,20.4
2022-10-22T13:30:50.182Z,20.4
2022-10-22T13:31:52.380Z,20.5
2022-10-22T13:32:54.857Z,20.4
2022-10-22T13:33:56.779Z,20.4
2022-10-22T13:34:58.976Z,20.3
2022-10-22T13:36:01.172Z,20.5
2022-10-22T13:37:03.689Z,20.4
2022-10-22T13:38:06.166Z,20.4
2022-10-22T13:39:08.360Z,20.4
2022-10-22T13:40:11.864Z,20.4
2022-10-22T13:41:14.380Z,20.4
2022-10-22T13:42:16.868Z,20.4
2022-10-22T13:43:19.351Z,20.5
2022-10-22T13:44:21.868Z,20.4
2022-10-22T13:45:24.348Z,20.5
2022-10-22T13:46:26.820Z,20.4
2022-10-22T13:47:29.014Z,20.4
2022-10-22T13:48:31.211Z,20.4
2022-10-22T13:49:33.462Z,20.4
2022-10-22T13:50:35.179Z,20.6
2022-10-22T13:51:37.680Z,20.4
2022-10-22T13:52:40.658Z,20.6
2022-10-22T13:53:44.580Z,20.5
2022-10-22T13:54:46.776Z,20.5
2022-10-22T13:55:49.307Z,20.4
2022-10-22T13:56:51.239Z,20.6
2022-10-22T13:57:53.731Z,20.5
2022-10-22T13:58:55.969Z,20.4
2022-10-22T13:59:58.202Z,20.6
2022-10-22T14:01:00.914Z,20.4
2022-10-22T14:02:03.596Z,20.4
2022-10-22T14:03:06.067Z,20.5
2022-10-22T14:04:08.540Z,20.4
2022-10-22T14:05:11.007Z,20.3
2022-10-22T14:06:13.482Z,20.4
2022-10-22T14:07:15.691Z,20.4
2022-10-22T14:08:18.210Z,20.4
2022-10-22T14:09:20.485Z,20.4
2022-10-22T14:10:23.011Z,20.4
2022-10-22T14:11:25.519Z,20.4
2022-10-22T14:12:28.019Z,20.5